sensor_id;sensor_type;location;lat;lon;timestamp;P1;durP1;ratioP1;P2;durP2;ratioP2
41705;SDS011;27385;51.096;17.190;2023-09-07T00:01:05;10.10;;;3.60;;
41705;SDS011;27385;51.096;17.190;2023-09-07T00:03:38;12.40;;;4.30;;
41705;SDS011;27385;51.096;17.190;2023-09-07T00:06:09;16.90;;;5.20;;
41705;SDS011;27385;51.096;17.190;2023-09-07T00:08:41;14.50;;;4.90;;
41705;SDS011;27385;51.096;17.190;2023-09-07T00:11:12;11.20;;;3.60;;
41705;SDS011;27385;51.096;17.190;2023-09-07T00:13:43;14.00;;;4.40;;
41705;SDS011;27385;51.096;17.190;2023-09-07T00:16:13;14.20;;;3.80;;
41705;SDS011;27385;51.096;17.190;2023-09-07T00:18:44;11.00;;;3.80;;
41705;SDS011;27385;51.096;17.190;2023-09-07T00:21:15;12.10;;;4.00;;
41705;SDS011;27385;51.096;17.190;2023-09-07T00:23:45;13.40;;;4.30;;
41705;SDS011;27385;51.096;17.190;2023-09-07T00:26:16;12.00;;;3.40;;
41705;SDS011;27385;51.096;17.190;2023-09-07T00:28:47;11.40;;;3.70;;
41705;SDS011;27385;51.096;17.190;2023-09-07T00:31:17;10.80;;;4.00;;
41705;SDS011;27385;51.096;17.190;2023-09-07T00:33:48;12.20;;;3.10;;
41705;SDS011;27385;51.096;17.190;2023-09-07T00:36:19;13.40;;;4.10;;
41705;SDS011;27385;51.096;17.190;2023-09-07T00:38:49;13.40;;;3.20;;
41705;SDS011;27385;51.096;17.190;2023-09-07T00:41:20;11.60;;;4.10;;
41705;SDS011;27385;51.096;17.190;2023-09-07T00:43:51;10.90;;;3.50;;
41705;SDS011;27385;51.096;17.190;2023-09-07T00:46:21;11.70;;;3.80;;
41705;SDS011;27385;51.096;17.190;2023-09-07T00:48:52;12.20;;;3.90;;
41705;SDS011;27385;51.096;17.190;2023-09-07T00:51:24;14.80;;;4.70;;
41705;SDS011;27385;51.096;17.190;2023-09-07T00:53:55;15.50;;;5.20;;
41705;SDS011;27385;51.096;17.190;2023-09-07T00:56:26;12.10;;;3.00;;
41705;SDS011;27385;51.096;17.190;2023-09-07T00:58:57;11.10;;;3.20;;
41705;SDS011;27385;51.096;17.190;2023-09-07T01:01:28;13.80;;;3.50;;
41705;SDS011;27385;51.096;17.190;2023-09-07T01:04:00;14.00;;;4.20;;
41705;SDS011;27385;51.096;17.190;2023-09-07T01:06:32;17.70;;;4.10;;
41705;SDS011;27385;51.096;17.190;2023-09-07T01:09:11;16.00;;;4.30;;
41705;SDS011;27385;51.096;17.190;2023-09-07T01:11:48;13.80;;;4.00;;
41705;SDS011;27385;51.096;17.190;2023-09-07T01:14:20;13.20;;;4.50;;
41705;SDS011;27385;51.096;17.190;2023-09-07T01:16:51;11.60;;;4.10;;
41705;SDS011;27385;51.096;17.190;2023-09-07T01:19:22;12.50;;;4.50;;
41705;SDS011;27385;51.096;17.190;2023-09-07T01:21:52;13.00;;;3.90;;
41705;SDS011;27385;51.096;17.190;2023-09-07T01:24:24;11.80;;;4.60;;
41705;SDS011;27385;51.096;17.190;2023-09-07T01:26:57;13.60;;;4.80;;
41705;SDS011;27385;51.096;17.190;2023-09-07T01:29:30;13.80;;;4.90;;
41705;SDS011;27385;51.096;17.190;2023-09-07T01:32:01;12.80;;;4.80;;
41705;SDS011;27385;51.096;17.190;2023-09-07T01:34:32;12.40;;;3.80;;
41705;SDS011;27385;51.096;17.190;2023-09-07T01:37:03;11.30;;;3.60;;
41705;SDS011;27385;51.096;17.190;2023-09-07T01:39:34;12.70;;;3.40;;
41705;SDS011;27385;51.096;17.190;2023-09-07T01:42:05;15.90;;;4.50;;
41705;SDS011;27385;51.096;17.190;2023-09-07T01:44:36;14.20;;;3.80;;
41705;SDS011;27385;51.096;17.190;2023-09-07T01:47:07;10.20;;;3.10;;
41705;SDS011;27385;51.096;17.190;2023-09-07T01:49:37;12.10;;;3.60;;
41705;SDS011;27385;51.096;17.190;2023-09-07T01:52:08;12.30;;;3.70;;
41705;SDS011;27385;51.096;17.190;2023-09-07T01:54:39;12.00;;;3.80;;
41705;SDS011;27385;51.096;17.190;2023-09-07T01:57:09;13.40;;;3.40;;
41705;SDS011;27385;51.096;17.190;2023-09-07T01:59:43;15.00;;;4.30;;
41705;SDS011;27385;51.096;17.190;2023-09-07T02:02:16;12.30;;;4.40;;
41705;SDS011;27385;51.096;17.190;2023-09-07T02:04:46;13.10;;;3.70;;
41705;SDS011;27385;51.096;17.190;2023-09-07T02:07:17;12.30;;;4.30;;
41705;SDS011;27385;51.096;17.190;2023-09-07T02:09:48;10.80;;;3.10;;
41705;SDS011;27385;51.096;17.190;2023-09-07T02:12:19;13.70;;;3.50;;
41705;SDS011;27385;51.096;17.190;2023-09-07T02:14:50;11.00;;;3.30;;
41705;SDS011;27385;51.096;17.190;2023-09-07T02:17:21;14.50;;;3.70;;
41705;SDS011;27385;51.096;17.190;2023-09-07T02:19:52;13.60;;;3.90;;
41705;SDS011;27385;51.096;17.190;2023-09-07T02:22:23;12.20;;;3.30;;
41705;SDS011;27385;51.096;17.190;2023-09-07T02:24:54;13.50;;;3.50;;
41705;SDS011;27385;51.096;17.190;2023-09-07T02:27:25;10.60;;;3.00;;
41705;SDS011;27385;51.096;17.190;2023-09-07T02:29:56;10.80;;;2.90;;
41705;SDS011;27385;51.096;17.190;2023-09-07T02:32:27;13.40;;;3.60;;
41705;SDS011;27385;51.096;17.190;2023-09-07T02:34:57;14.10;;;3.30;;
41705;SDS011;27385;51.096;17.190;2023-09-07T02:37:28;10.10;;;2.30;;
41705;SDS011;27385;51.096;17.190;2023-09-07T02:39:59;12.70;;;3.60;;
41705;SDS011;27385;51.096;17.190;2023-09-07T02:42:34;15.50;;;2.90;;
41705;SDS011;27385;51.096;17.190;2023-09-07T02:45:06;13.40;;;3.40;;
41705;SDS011;27385;51.096;17.190;2023-09-07T02:47:38;13.70;;;3.80;;
41705;SDS011;27385;51.096;17.190;2023-09-07T02:50:09;12.50;;;3.10;;
41705;SDS011;27385;51.096;17.190;2023-09-07T02:52:40;11.60;;;3.80;;
41705;SDS011;27385;51.096;17.190;2023-09-07T02:55:11;12.90;;;3.50;;
41705;SDS011;27385;51.096;17.190;2023-09-07T02:57:43;13.80;;;3.60;;
41705;SDS011;27385;51.096;17.190;2023-09-07T03:00:14;12.80;;;3.90;;
41705;SDS011;27385;51.096;17.190;2023-09-07T03:02:45;12.70;;;3.30;;
41705;SDS011;27385;51.096;17.190;2023-09-07T03:05:16;12.60;;;3.10;;
41705;SDS011;27385;51.096;17.190;2023-09-07T03:07:47;16.00;;;3.50;;
41705;SDS011;27385;51.096;17.190;2023-09-07T03:10:18;18.70;;;3.90;;
41705;SDS011;27385;51.096;17.190;2023-09-07T03:12:49;10.30;;;2.80;;
41705;SDS011;27385;51.096;17.190;2023-09-07T03:15:22;17.40;;;4.00;;
41705;SDS011;27385;51.096;17.190;2023-09-07T03:17:54;13.90;;;4.70;;
41705;SDS011;27385;51.096;17.190;2023-09-07T03:20:25;18.50;;;4.60;;
41705;SDS011;27385;51.096;17.190;2023-09-07T03:22:56;12.10;;;3.30;;
41705;SDS011;27385;51.096;17.190;2023-09-07T03:25:27;12.10;;;3.30;;
41705;SDS011;27385;51.096;17.190;2023-09-07T03:27:58;11.70;;;3.90;;
41705;SDS011;27385;51.096;17.190;2023-09-07T03:30:29;14.00;;;4.10;;
41705;SDS011;27385;51.096;17.190;2023-09-07T03:33:00;12.10;;;3.70;;
41705;SDS011;27385;51.096;17.190;2023-09-07T03:35:31;11.00;;;3.60;;
41705;SDS011;27385;51.096;17.190;2023-09-07T03:38:03;15.00;;;3.40;;
41705;SDS011;27385;51.096;17.190;2023-09-07T03:40:34;14.60;;;3.50;;
41705;SDS011;27385;51.096;17.190;2023-09-07T03:43:04;13.10;;;3.70;;
41705;SDS011;27385;51.096;17.190;2023-09-07T03:45:35;11.50;;;3.50;;
41705;SDS011;27385;51.096;17.190;2023-09-07T03:48:06;12.40;;;3.50;;
41705;SDS011;27385;51.096;17.190;2023-09-07T03:50:37;13.50;;;3.30;;
41705;SDS011;27385;51.096;17.190;2023-09-07T03:53:07;12.50;;;3.90;;
41705;SDS011;27385;51.096;17.190;2023-09-07T03:55:41;13.50;;;3.90;;
41705;SDS011;27385;51.096;17.190;2023-09-07T03:58:13;14.30;;;4.20;;
41705;SDS011;27385;51.096;17.190;2023-09-07T04:00:44;11.80;;;3.60;;
41705;SDS011;27385;51.096;17.190;2023-09-07T04:03:15;11.40;;;3.80;;
41705;SDS011;27385;51.096;17.190;2023-09-07T04:05:46;16.00;;;3.60;;
41705;SDS011;27385;51.096;17.190;2023-09-07T04:08:16;13.50;;;4.40;;
41705;SDS011;27385;51.096;17.190;2023-09-07T04:10:47;15.50;;;4.30;;
41705;SDS011;27385;51.096;17.190;2023-09-07T04:13:18;16.60;;;4.70;;
41705;SDS011;27385;51.096;17.190;2023-09-07T04:15:49;14.50;;;4.30;;
41705;SDS011;27385;51.096;17.190;2023-09-07T04:18:20;13.60;;;4.00;;
41705;SDS011;27385;51.096;17.190;2023-09-07T04:20:51;16.80;;;4.70;;
41705;SDS011;27385;51.096;17.190;2023-09-07T04:23:21;15.80;;;4.30;;
41705;SDS011;27385;51.096;17.190;2023-09-07T04:25:52;14.20;;;4.80;;
41705;SDS011;27385;51.096;17.190;2023-09-07T04:28:32;13.10;;;3.70;;
41705;SDS011;27385;51.096;17.190;2023-09-07T04:31:02;16.20;;;4.30;;
41705;SDS011;27385;51.096;17.190;2023-09-07T04:33:34;16.10;;;4.20;;
41705;SDS011;27385;51.096;17.190;2023-09-07T04:36:08;13.10;;;4.00;;
41705;SDS011;27385;51.096;17.190;2023-09-07T04:38:40;12.80;;;3.70;;
41705;SDS011;27385;51.096;17.190;2023-09-07T04:41:11;13.80;;;4.50;;
41705;SDS011;27385;51.096;17.190;2023-09-07T04:43:42;18.10;;;4.50;;
41705;SDS011;27385;51.096;17.190;2023-09-07T04:46:13;15.60;;;4.40;;
41705;SDS011;27385;51.096;17.190;2023-09-07T04:48:45;13.80;;;4.10;;
41705;SDS011;27385;51.096;17.190;2023-09-07T04:51:16;10.10;;;3.60;;
41705;SDS011;27385;51.096;17.190;2023-09-07T04:53:48;12.10;;;4.00;;
41705;SDS011;27385;51.096;17.190;2023-09-07T04:56:19;15.40;;;3.90;;
41705;SDS011;27385;51.096;17.190;2023-09-07T04:58:50;13.00;;;3.90;;
41705;SDS011;27385;51.096;17.190;2023-09-07T05:01:20;15.60;;;4.50;;
41705;SDS011;27385;51.096;17.190;2023-09-07T05:03:51;14.70;;;4.20;;
41705;SDS011;27385;51.096;17.190;2023-09-07T05:06:23;13.70;;;5.00;;
41705;SDS011;27385;51.096;17.190;2023-09-07T05:08:54;17.10;;;5.10;;
41705;SDS011;27385;51.096;17.190;2023-09-07T05:11:24;15.50;;;5.00;;
41705;SDS011;27385;51.096;17.190;2023-09-07T05:13:55;13.80;;;4.30;;
41705;SDS011;27385;51.096;17.190;2023-09-07T05:16:26;15.00;;;5.10;;
41705;SDS011;27385;51.096;17.190;2023-09-07T05:18:57;14.10;;;4.90;;
41705;SDS011;27385;51.096;17.190;2023-09-07T05:21:28;19.30;;;4.80;;
41705;SDS011;27385;51.096;17.190;2023-09-07T05:23:58;15.00;;;5.50;;
41705;SDS011;27385;51.096;17.190;2023-09-07T05:26:29;13.40;;;5.10;;
41705;SDS011;27385;51.096;17.190;2023-09-07T05:29:00;17.40;;;4.70;;
41705;SDS011;27385;51.096;17.190;2023-09-07T05:31:31;19.10;;;5.60;;
41705;SDS011;27385;51.096;17.190;2023-09-07T05:34:01;16.00;;;5.90;;
41705;SDS011;27385;51.096;17.190;2023-09-07T05:36:32;17.90;;;6.50;;
41705;SDS011;27385;51.096;17.190;2023-09-07T05:39:03;19.70;;;6.70;;
41705;SDS011;27385;51.096;17.190;2023-09-07T05:41:34;20.60;;;6.70;;
41705;SDS011;27385;51.096;17.190;2023-09-07T05:44:05;19.90;;;5.80;;
41705;SDS011;27385;51.096;17.190;2023-09-07T05:46:36;18.90;;;6.50;;
41705;SDS011;27385;51.096;17.190;2023-09-07T05:49:06;19.50;;;6.10;;
41705;SDS011;27385;51.096;17.190;2023-09-07T05:51:37;23.80;;;7.40;;
41705;SDS011;27385;51.096;17.190;2023-09-07T05:54:08;29.60;;;7.50;;
41705;SDS011;27385;51.096;17.190;2023-09-07T05:56:39;28.90;;;7.70;;
41705;SDS011;27385;51.096;17.190;2023-09-07T05:59:11;24.30;;;7.10;;
41705;SDS011;27385;51.096;17.190;2023-09-07T06:01:42;20.60;;;7.10;;
41705;SDS011;27385;51.096;17.190;2023-09-07T06:04:12;32.70;;;8.40;;
41705;SDS011;27385;51.096;17.190;2023-09-07T06:06:43;25.80;;;7.50;;
41705;SDS011;27385;51.096;17.190;2023-09-07T06:09:14;21.10;;;6.90;;
41705;SDS011;27385;51.096;17.190;2023-09-07T06:11:45;21.00;;;6.70;;
41705;SDS011;27385;51.096;17.190;2023-09-07T06:14:16;22.70;;;7.80;;
41705;SDS011;27385;51.096;17.190;2023-09-07T06:16:47;26.10;;;7.20;;
41705;SDS011;27385;51.096;17.190;2023-09-07T06:19:17;21.60;;;7.10;;
41705;SDS011;27385;51.096;17.190;2023-09-07T06:21:49;19.60;;;8.40;;
41705;SDS011;27385;51.096;17.190;2023-09-07T06:24:20;24.90;;;8.40;;
41705;SDS011;27385;51.096;17.190;2023-09-07T06:26:51;24.60;;;7.10;;
41705;SDS011;27385;51.096;17.190;2023-09-07T06:29:21;23.70;;;7.20;;
41705;SDS011;27385;51.096;17.190;2023-09-07T06:31:52;25.70;;;7.80;;
41705;SDS011;27385;51.096;17.190;2023-09-07T06:34:23;23.90;;;7.60;;
41705;SDS011;27385;51.096;17.190;2023-09-07T06:36:53;20.50;;;7.60;;
41705;SDS011;27385;51.096;17.190;2023-09-07T06:39:24;25.80;;;8.70;;
41705;SDS011;27385;51.096;17.190;2023-09-07T06:41:55;25.80;;;8.00;;
41705;SDS011;27385;51.096;17.190;2023-09-07T06:44:26;25.40;;;8.60;;
41705;SDS011;27385;51.096;17.190;2023-09-07T06:46:56;24.50;;;9.50;;
41705;SDS011;27385;51.096;17.190;2023-09-07T06:49:27;31.60;;;8.50;;
41705;SDS011;27385;51.096;17.190;2023-09-07T06:51:58;23.90;;;7.40;;
41705;SDS011;27385;51.096;17.190;2023-09-07T06:54:30;28.30;;;8.70;;
41705;SDS011;27385;51.096;17.190;2023-09-07T06:57:01;30.20;;;8.50;;
41705;SDS011;27385;51.096;17.190;2023-09-07T06:59:35;24.00;;;8.00;;
41705;SDS011;27385;51.096;17.190;2023-09-07T07:02:05;26.10;;;7.30;;
41705;SDS011;27385;51.096;17.190;2023-09-07T07:04:36;25.70;;;8.20;;
41705;SDS011;27385;51.096;17.190;2023-09-07T07:07:07;27.10;;;7.50;;
41705;SDS011;27385;51.096;17.190;2023-09-07T07:09:38;23.90;;;9.50;;
41705;SDS011;27385;51.096;17.190;2023-09-07T07:12:09;25.40;;;8.20;;
41705;SDS011;27385;51.096;17.190;2023-09-07T07:14:40;23.80;;;7.60;;
41705;SDS011;27385;51.096;17.190;2023-09-07T07:17:11;26.30;;;7.90;;
41705;SDS011;27385;51.096;17.190;2023-09-07T07:19:42;23.50;;;7.60;;
41705;SDS011;27385;51.096;17.190;2023-09-07T07:22:13;25.90;;;7.20;;
41705;SDS011;27385;51.096;17.190;2023-09-07T07:24:44;22.50;;;8.00;;
41705;SDS011;27385;51.096;17.190;2023-09-07T07:27:15;28.40;;;7.50;;
41705;SDS011;27385;51.096;17.190;2023-09-07T07:29:46;27.70;;;7.80;;
41705;SDS011;27385;51.096;17.190;2023-09-07T07:32:17;28.00;;;8.70;;
41705;SDS011;27385;51.096;17.190;2023-09-07T07:34:47;25.60;;;7.40;;
41705;SDS011;27385;51.096;17.190;2023-09-07T07:37:18;21.80;;;7.80;;
41705;SDS011;27385;51.096;17.190;2023-09-07T07:39:49;24.20;;;7.20;;
41705;SDS011;27385;51.096;17.190;2023-09-07T07:42:20;29.20;;;7.30;;
41705;SDS011;27385;51.096;17.190;2023-09-07T07:44:50;19.70;;;6.60;;
41705;SDS011;27385;51.096;17.190;2023-09-07T07:47:21;25.10;;;6.30;;
41705;SDS011;27385;51.096;17.190;2023-09-07T07:49:54;22.60;;;6.80;;
41705;SDS011;27385;51.096;17.190;2023-09-07T07:52:25;23.00;;;6.90;;
41705;SDS011;27385;51.096;17.190;2023-09-07T07:54:55;19.10;;;5.80;;
41705;SDS011;27385;51.096;17.190;2023-09-07T07:57:26;21.40;;;5.50;;
41705;SDS011;27385;51.096;17.190;2023-09-07T07:59:57;15.30;;;5.60;;
41705;SDS011;27385;51.096;17.190;2023-09-07T08:02:28;16.00;;;5.10;;
41705;SDS011;27385;51.096;17.190;2023-09-07T08:04:59;21.60;;;5.20;;
41705;SDS011;27385;51.096;17.190;2023-09-07T08:07:30;23.80;;;5.60;;
41705;SDS011;27385;51.096;17.190;2023-09-07T08:10:01;16.20;;;5.40;;
41705;SDS011;27385;51.096;17.190;2023-09-07T08:12:32;19.40;;;5.20;;
41705;SDS011;27385;51.096;17.190;2023-09-07T08:15:02;16.20;;;5.60;;
41705;SDS011;27385;51.096;17.190;2023-09-07T08:17:34;18.90;;;5.30;;
41705;SDS011;27385;51.096;17.190;2023-09-07T08:20:06;22.70;;;4.60;;
41705;SDS011;27385;51.096;17.190;2023-09-07T08:22:38;20.00;;;4.80;;
41705;SDS011;27385;51.096;17.190;2023-09-07T08:25:10;16.90;;;5.00;;
41705;SDS011;27385;51.096;17.190;2023-09-07T08:27:42;21.80;;;6.90;;
41705;SDS011;27385;51.096;17.190;2023-09-07T08:30:15;24.30;;;8.80;;
41705;SDS011;27385;51.096;17.190;2023-09-07T08:32:47;18.00;;;6.00;;
41705;SDS011;27385;51.096;17.190;2023-09-07T08:35:19;13.20;;;4.70;;
41705;SDS011;27385;51.096;17.190;2023-09-07T08:37:55;20.30;;;6.50;;
41705;SDS011;27385;51.096;17.190;2023-09-07T08:40:29;16.80;;;4.60;;
41705;SDS011;27385;51.096;17.190;2023-09-07T08:43:00;30.20;;;10.90;;
41705;SDS011;27385;51.096;17.190;2023-09-07T08:45:34;18.60;;;6.10;;
41705;SDS011;27385;51.096;17.190;2023-09-07T08:48:10;13.10;;;4.00;;
41705;SDS011;27385;51.096;17.190;2023-09-07T08:50:43;15.90;;;3.90;;
41705;SDS011;27385;51.096;17.190;2023-09-07T08:53:18;13.60;;;3.50;;
41705;SDS011;27385;51.096;17.190;2023-09-07T08:55:49;12.20;;;2.70;;
41705;SDS011;27385;51.096;17.190;2023-09-07T08:58:20;10.60;;;2.50;;
41705;SDS011;27385;51.096;17.190;2023-09-07T09:00:51;11.40;;;3.50;;
41705;SDS011;27385;51.096;17.190;2023-09-07T09:03:25;11.80;;;3.30;;
41705;SDS011;27385;51.096;17.190;2023-09-07T09:05:57;10.70;;;3.30;;
41705;SDS011;27385;51.096;17.190;2023-09-07T09:08:28;14.20;;;2.90;;
41705;SDS011;27385;51.096;17.190;2023-09-07T09:11:02;13.00;;;3.40;;
41705;SDS011;27385;51.096;17.190;2023-09-07T09:13:33;10.10;;;3.10;;
41705;SDS011;27385;51.096;17.190;2023-09-07T09:16:04;10.00;;;2.50;;
41705;SDS011;27385;51.096;17.190;2023-09-07T09:18:34;10.90;;;2.70;;
41705;SDS011;27385;51.096;17.190;2023-09-07T09:21:05;10.00;;;3.00;;
41705;SDS011;27385;51.096;17.190;2023-09-07T09:23:37;9.70;;;2.50;;
41705;SDS011;27385;51.096;17.190;2023-09-07T09:26:08;14.80;;;3.20;;
41705;SDS011;27385;51.096;17.190;2023-09-07T09:28:40;9.70;;;2.40;;
41705;SDS011;27385;51.096;17.190;2023-09-07T09:31:12;9.20;;;2.40;;
41705;SDS011;27385;51.096;17.190;2023-09-07T09:33:47;12.00;;;3.50;;
41705;SDS011;27385;51.096;17.190;2023-09-07T09:36:19;11.70;;;2.50;;
41705;SDS011;27385;51.096;17.190;2023-09-07T09:38:51;19.50;;;3.10;;
41705;SDS011;27385;51.096;17.190;2023-09-07T09:41:22;9.60;;;2.60;;
41705;SDS011;27385;51.096;17.190;2023-09-07T09:43:53;10.20;;;2.50;;
41705;SDS011;27385;51.096;17.190;2023-09-07T09:46:26;8.20;;;2.10;;
41705;SDS011;27385;51.096;17.190;2023-09-07T09:49:00;10.90;;;2.60;;
41705;SDS011;27385;51.096;17.190;2023-09-07T09:51:31;11.30;;;2.70;;
41705;SDS011;27385;51.096;17.190;2023-09-07T09:54:03;8.00;;;2.20;;
41705;SDS011;27385;51.096;17.190;2023-09-07T09:56:35;8.10;;;2.30;;
41705;SDS011;27385;51.096;17.190;2023-09-07T09:59:17;10.10;;;2.80;;
41705;SDS011;27385;51.096;17.190;2023-09-07T10:01:48;9.70;;;2.00;;
41705;SDS011;27385;51.096;17.190;2023-09-07T10:04:21;14.50;;;3.40;;
41705;SDS011;27385;51.096;17.190;2023-09-07T10:06:56;11.10;;;2.40;;
41705;SDS011;27385;51.096;17.190;2023-09-07T10:09:33;9.60;;;2.10;;
41705;SDS011;27385;51.096;17.190;2023-09-07T10:12:10;10.70;;;2.70;;
41705;SDS011;27385;51.096;17.190;2023-09-07T10:14:42;11.30;;;2.40;;
41705;SDS011;27385;51.096;17.190;2023-09-07T10:17:22;9.30;;;2.50;;
41705;SDS011;27385;51.096;17.190;2023-09-07T10:20:02;9.20;;;2.90;;
41705;SDS011;27385;51.096;17.190;2023-09-07T10:22:34;10.10;;;3.20;;
41705;SDS011;27385;51.096;17.190;2023-09-07T10:25:05;9.80;;;2.70;;
41705;SDS011;27385;51.096;17.190;2023-09-07T10:27:46;8.20;;;2.30;;
41705;SDS011;27385;51.096;17.190;2023-09-07T10:30:17;10.10;;;2.50;;
41705;SDS011;27385;51.096;17.190;2023-09-07T10:32:51;9.30;;;2.60;;
41705;SDS011;27385;51.096;17.190;2023-09-07T10:35:22;8.10;;;2.30;;
41705;SDS011;27385;51.096;17.190;2023-09-07T10:37:53;11.20;;;2.20;;
41705;SDS011;27385;51.096;17.190;2023-09-07T10:40:24;6.60;;;2.00;;
41705;SDS011;27385;51.096;17.190;2023-09-07T10:43:04;9.10;;;2.10;;
41705;SDS011;27385;51.096;17.190;2023-09-07T10:45:36;8.90;;;1.90;;
41705;SDS011;27385;51.096;17.190;2023-09-07T10:48:07;7.60;;;2.00;;
41705;SDS011;27385;51.096;17.190;2023-09-07T10:50:48;10.90;;;2.40;;
41705;SDS011;27385;51.096;17.190;2023-09-07T10:53:26;9.00;;;2.10;;
41705;SDS011;27385;51.096;17.190;2023-09-07T10:55:58;7.30;;;2.10;;
41705;SDS011;27385;51.096;17.190;2023-09-07T10:58:32;7.20;;;2.00;;
41705;SDS011;27385;51.096;17.190;2023-09-07T11:01:06;8.30;;;2.10;;
41705;SDS011;27385;51.096;17.190;2023-09-07T11:03:37;8.30;;;2.20;;
41705;SDS011;27385;51.096;17.190;2023-09-07T11:06:09;8.30;;;1.80;;
41705;SDS011;27385;51.096;17.190;2023-09-07T11:08:41;9.50;;;2.00;;
41705;SDS011;27385;51.096;17.190;2023-09-07T11:11:12;7.90;;;1.70;;
41705;SDS011;27385;51.096;17.190;2023-09-07T11:13:45;8.60;;;2.10;;
41705;SDS011;27385;51.096;17.190;2023-09-07T11:16:16;7.00;;;2.00;;
41705;SDS011;27385;51.096;17.190;2023-09-07T11:18:47;7.20;;;2.20;;
41705;SDS011;27385;51.096;17.190;2023-09-07T11:21:18;9.60;;;2.10;;
41705;SDS011;27385;51.096;17.190;2023-09-07T11:23:50;8.30;;;2.00;;
41705;SDS011;27385;51.096;17.190;2023-09-07T11:26:21;5.70;;;1.70;;
41705;SDS011;27385;51.096;17.190;2023-09-07T11:28:52;7.40;;;2.20;;
41705;SDS011;27385;51.096;17.190;2023-09-07T11:31:23;11.60;;;2.50;;
41705;SDS011;27385;51.096;17.190;2023-09-07T11:33:54;6.60;;;1.80;;
41705;SDS011;27385;51.096;17.190;2023-09-07T11:36:24;9.50;;;2.30;;
41705;SDS011;27385;51.096;17.190;2023-09-07T11:38:55;8.60;;;2.20;;
41705;SDS011;27385;51.096;17.190;2023-09-07T11:41:26;7.80;;;1.90;;
41705;SDS011;27385;51.096;17.190;2023-09-07T11:43:57;7.00;;;1.80;;
41705;SDS011;27385;51.096;17.190;2023-09-07T11:46:28;6.40;;;1.70;;
41705;SDS011;27385;51.096;17.190;2023-09-07T11:48:58;8.30;;;2.10;;
41705;SDS011;27385;51.096;17.190;2023-09-07T11:51:29;7.80;;;2.30;;
41705;SDS011;27385;51.096;17.190;2023-09-07T11:54:01;8.20;;;2.40;;
41705;SDS011;27385;51.096;17.190;2023-09-07T11:56:34;7.90;;;1.80;;
41705;SDS011;27385;51.096;17.190;2023-09-07T11:59:09;8.30;;;2.40;;
41705;SDS011;27385;51.096;17.190;2023-09-07T12:01:40;8.50;;;2.20;;
41705;SDS011;27385;51.096;17.190;2023-09-07T12:04:10;7.90;;;2.00;;
41705;SDS011;27385;51.096;17.190;2023-09-07T12:06:41;14.20;;;3.20;;
41705;SDS011;27385;51.096;17.190;2023-09-07T12:09:12;10.60;;;2.70;;
41705;SDS011;27385;51.096;17.190;2023-09-07T12:11:44;6.70;;;1.60;;
41705;SDS011;27385;51.096;17.190;2023-09-07T12:14:15;12.20;;;2.90;;
41705;SDS011;27385;51.096;17.190;2023-09-07T12:16:46;9.60;;;2.20;;
41705;SDS011;27385;51.096;17.190;2023-09-07T12:19:17;6.60;;;2.10;;
41705;SDS011;27385;51.096;17.190;2023-09-07T12:21:47;9.90;;;2.20;;
41705;SDS011;27385;51.096;17.190;2023-09-07T12:24:20;9.60;;;3.40;;
41705;SDS011;27385;51.096;17.190;2023-09-07T12:26:50;8.40;;;2.10;;
41705;SDS011;27385;51.096;17.190;2023-09-07T12:29:21;7.50;;;1.90;;
41705;SDS011;27385;51.096;17.190;2023-09-07T12:31:52;9.30;;;2.40;;
41705;SDS011;27385;51.096;17.190;2023-09-07T12:34:23;11.80;;;2.40;;
41705;SDS011;27385;51.096;17.190;2023-09-07T12:36:54;12.00;;;2.10;;
41705;SDS011;27385;51.096;17.190;2023-09-07T12:39:24;6.60;;;2.00;;
41705;SDS011;27385;51.096;17.190;2023-09-07T12:41:55;7.40;;;1.90;;
41705;SDS011;27385;51.096;17.190;2023-09-07T12:44:26;9.70;;;2.10;;
41705;SDS011;27385;51.096;17.190;2023-09-07T12:46:57;6.50;;;1.70;;
41705;SDS011;27385;51.096;17.190;2023-09-07T12:49:28;10.20;;;3.20;;
41705;SDS011;27385;51.096;17.190;2023-09-07T12:51:59;6.50;;;1.90;;
41705;SDS011;27385;51.096;17.190;2023-09-07T12:54:36;8.80;;;2.20;;
41705;SDS011;27385;51.096;17.190;2023-09-07T12:57:07;8.00;;;1.90;;
41705;SDS011;27385;51.096;17.190;2023-09-07T12:59:38;8.80;;;2.10;;
41705;SDS011;27385;51.096;17.190;2023-09-07T13:02:09;7.50;;;2.10;;
41705;SDS011;27385;51.096;17.190;2023-09-07T13:04:40;9.20;;;1.90;;
41705;SDS011;27385;51.096;17.190;2023-09-07T13:07:11;8.90;;;2.60;;
41705;SDS011;27385;51.096;17.190;2023-09-07T13:09:42;7.60;;;2.00;;
41705;SDS011;27385;51.096;17.190;2023-09-07T13:12:13;10.60;;;2.00;;
41705;SDS011;27385;51.096;17.190;2023-09-07T13:14:44;8.90;;;2.00;;
41705;SDS011;27385;51.096;17.190;2023-09-07T13:17:16;10.80;;;2.00;;
41705;SDS011;27385;51.096;17.190;2023-09-07T13:19:47;7.80;;;1.80;;
41705;SDS011;27385;51.096;17.190;2023-09-07T13:22:17;7.50;;;1.90;;
41705;SDS011;27385;51.096;17.190;2023-09-07T13:24:48;10.10;;;2.20;;
41705;SDS011;27385;51.096;17.190;2023-09-07T13:27:19;8.00;;;2.10;;
41705;SDS011;27385;51.096;17.190;2023-09-07T13:29:50;7.00;;;2.10;;
41705;SDS011;27385;51.096;17.190;2023-09-07T13:32:21;9.60;;;1.80;;
41705;SDS011;27385;51.096;17.190;2023-09-07T13:34:52;7.20;;;2.20;;
41705;SDS011;27385;51.096;17.190;2023-09-07T13:37:22;8.00;;;2.10;;
41705;SDS011;27385;51.096;17.190;2023-09-07T13:39:53;6.70;;;1.80;;
41705;SDS011;27385;51.096;17.190;2023-09-07T13:42:24;6.00;;;2.10;;
41705;SDS011;27385;51.096;17.190;2023-09-07T13:44:57;8.60;;;2.10;;
41705;SDS011;27385;51.096;17.190;2023-09-07T13:47:29;7.90;;;2.10;;
41705;SDS011;27385;51.096;17.190;2023-09-07T13:49:59;6.10;;;1.90;;
41705;SDS011;27385;51.096;17.190;2023-09-07T13:52:30;9.80;;;2.10;;
41705;SDS011;27385;51.096;17.190;2023-09-07T13:55:01;9.50;;;2.30;;
41705;SDS011;27385;51.096;17.190;2023-09-07T13:57:33;18.40;;;2.30;;
41705;SDS011;27385;51.096;17.190;2023-09-07T14:00:05;9.40;;;2.00;;
41705;SDS011;27385;51.096;17.190;2023-09-07T14:02:37;9.40;;;2.00;;
41705;SDS011;27385;51.096;17.190;2023-09-07T14:05:08;6.80;;;2.10;;
41705;SDS011;27385;51.096;17.190;2023-09-07T14:07:39;8.50;;;1.80;;
41705;SDS011;27385;51.096;17.190;2023-09-07T14:10:10;7.30;;;2.00;;
41705;SDS011;27385;51.096;17.190;2023-09-07T14:12:40;9.40;;;2.40;;
41705;SDS011;27385;51.096;17.190;2023-09-07T14:15:12;8.70;;;2.70;;
41705;SDS011;27385;51.096;17.190;2023-09-07T14:17:43;7.90;;;1.90;;
41705;SDS011;27385;51.096;17.190;2023-09-07T14:20:15;7.20;;;1.90;;
41705;SDS011;27385;51.096;17.190;2023-09-07T14:22:46;10.70;;;2.10;;
41705;SDS011;27385;51.096;17.190;2023-09-07T14:25:17;7.50;;;2.00;;
41705;SDS011;27385;51.096;17.190;2023-09-07T14:27:48;12.90;;;1.80;;
41705;SDS011;27385;51.096;17.190;2023-09-07T14:30:19;11.70;;;2.40;;
41705;SDS011;27385;51.096;17.190;2023-09-07T14:32:50;10.10;;;2.20;;
41705;SDS011;27385;51.096;17.190;2023-09-07T14:35:21;7.10;;;1.80;;
41705;SDS011;27385;51.096;17.190;2023-09-07T14:37:51;11.10;;;2.00;;
41705;SDS011;27385;51.096;17.190;2023-09-07T14:40:22;5.80;;;1.60;;
41705;SDS011;27385;51.096;17.190;2023-09-07T14:42:53;6.30;;;1.90;;
41705;SDS011;27385;51.096;17.190;2023-09-07T14:45:25;12.40;;;2.00;;
41705;SDS011;27385;51.096;17.190;2023-09-07T14:47:55;11.90;;;2.40;;
41705;SDS011;27385;51.096;17.190;2023-09-07T14:50:26;15.00;;;2.30;;